Time;durP1;ratioP1;P1;durP2;ratioP2;P2;SDS_P1;SDS_P2;PMS_P1;PMS_P2;Temp;Humidity;BMP_temperature;BMP_pressure;BME280_temperature;BME280_humidity;BME280_pressure;Samples;Min_cycle;Max_cycle;Signal;HPM_P1;HPM_P2
2022/04/10 00:00:19;;;;;;;5.88;1.90;;;;;;;;;;5047332;28;20874;-57
2022/04/10 00:02:45;;;;;;;6.20;2.30;;;;;;;;;;5045683;28;20076;-56
2022/04/10 00:05:11;;;;;;;6.00;2.33;;;;;;;;;;5047863;28;20134;-53
2022/04/10 00:07:37;;;;;;;5.25;2.50;;;;;;;;;;5048132;28;20063;-54
2022/04/10 00:10:04;;;;;;;6.97;2.25;;;;;;;;;;5047550;28;20115;-55
2022/04/10 00:12:30;;;;;;;4.82;1.90;;;;;;;;;;5047539;28;20559;-56
2022/04/10 00:14:56;;;;;;;6.28;2.78;;;;;;;;;;5047488;28;20147;-54
2022/04/10 00:17:22;;;;;;;7.22;2.05;;;;;;;;;;5044934;28;20113;-56
2022/04/10 00:19:48;;;;;;;4.80;1.77;;;;;;;;;;5028414;28;20040;-55
2022/04/10 00:22:14;;;;;;;5.60;2.17;;;;;;;;;;5050660;28;20032;-56
2022/04/10 00:24:40;;;;;;;7.13;2.30;;;;;;;;;;5050972;28;20033;-55
2022/04/10 00:27:07;;;;;;;5.72;2.28;;;;;;;;;;5050767;28;20130;-54
2022/04/10 00:29:33;;;;;;;6.82;2.80;;;;;;;;;;5050752;28;20147;-55
2022/04/10 00:31:59;;;;;;;5.90;2.28;;;;;;;;;;5050305;28;20024;-55
2022/04/10 00:34:25;;;;;;;5.20;2.15;;;;;;;;;;5049838;28;20411;-53
2022/04/10 00:36:51;;;;;;;6.18;2.08;;;;;;;;;;5050464;28;20021;-54
2022/04/10 00:39:17;;;;;;;3.83;1.70;;;;;;;;;;5050721;28;20601;-56
2022/04/10 00:41:43;;;;;;;6.50;2.17;;;;;;;;;;5050161;28;20067;-56
2022/04/10 00:44:11;;;;;;;5.38;2.13;;;;;;;;;;5050023;28;20550;-56
2022/04/10 00:46:38;;;;;;;7.43;2.45;;;;;;;;;;5050470;28;20395;-55
2022/04/10 00:49:04;;;;;;;6.28;2.08;;;;;;;;;;5049555;28;20422;-55
2022/04/10 00:51:46;;;;;;;5.38;2.30;;;;;;;;;;5050637;28;20028;-55
2022/04/10 00:54:16;;;;;;;4.60;1.80;;;;;;;;;;5050322;28;20025;-55
2022/04/10 00:56:43;;;;;;;4.25;1.58;;;;;;;;;;5048102;28;20041;-53
2022/04/10 00:59:09;;;;;;;5.55;1.80;;;;;;;;;;5049919;28;20086;-56
2022/04/10 01:01:36;;;;;;;4.05;1.92;;;;;;;;;;5050170;28;20035;-57
2022/04/10 01:04:03;;;;;;;4.75;1.80;;;;;;;;;;5050841;28;20033;-56
2022/04/10 01:06:29;;;;;;;6.13;1.98;;;;;;;;;;5049914;28;20055;-57
2022/04/10 01:08:56;;;;;;;9.32;2.20;;;;;;;;;;5049983;28;20464;-56
2022/04/10 01:11:23;;;;;;;5.28;2.15;;;;;;;;;;5036709;28;20034;-57
2022/04/10 01:13:49;;;;;;;4.07;1.83;;;;;;;;;;5049777;28;20063;-56
2022/04/10 01:16:15;;;;;;;4.82;1.63;;;;;;;;;;5049786;28;20039;-57
2022/04/10 01:18:42;;;;;;;5.03;1.90;;;;;;;;;;5049680;28;20033;-56
2022/04/10 01:21:08;;;;;;;6.28;2.80;;;;;;;;;;5049902;28;20025;-54
2022/04/10 01:23:34;;;;;;;4.55;1.45;;;;;;;;;;5049736;28;20482;-53
2022/04/10 01:26:00;;;;;;;4.55;1.92;;;;;;;;;;5047399;28;20605;-56
2022/04/10 01:28:26;;;;;;;4.68;1.70;;;;;;;;;;5049291;28;20116;-55
2022/04/10 01:30:52;;;;;;;5.40;1.83;;;;;;;;;;5049966;28;20127;-56
2022/04/10 01:33:18;;;;;;;6.53;1.92;;;;;;;;;;5048743;28;20025;-56
2022/04/10 01:35:44;;;;;;;5.38;1.58;;;;;;;;;;5049975;28;20044;-55
2022/04/10 01:38:12;;;;;;;5.35;1.90;;;;;;;;;;5049113;28;20025;-54
2022/04/10 01:40:38;;;;;;;6.28;1.90;;;;;;;;;;5048764;28;20040;-57
2022/04/10 01:43:04;;;;;;;4.13;1.77;;;;;;;;;;5049542;28;20025;-54
2022/04/10 01:45:31;;;;;;;6.32;2.10;;;;;;;;;;5049551;28;20056;-56
2022/04/10 01:47:57;;;;;;;4.32;1.60;;;;;;;;;;5049628;28;20115;-54
2022/04/10 01:50:23;;;;;;;3.70;1.88;;;;;;;;;;5048781;28;20044;-57
2022/04/10 01:52:49;;;;;;;5.78;1.88;;;;;;;;;;5049529;28;20037;-55
2022/04/10 01:55:15;;;;;;;4.60;1.80;;;;;;;;;;5048213;28;20037;-57
2022/04/10 01:57:42;;;;;;;3.72;1.58;;;;;;;;;;5049474;28;20087;-56
2022/04/10 02:00:09;;;;;;;5.75;1.98;;;;;;;;;;5049067;28;20029;-58
2022/04/10 02:02:35;;;;;;;4.78;1.67;;;;;;;;;;5047030;28;20549;-56
2022/04/10 02:05:01;;;;;;;5.45;1.60;;;;;;;;;;5048690;28;20021;-55
2022/04/10 02:07:28;;;;;;;3.72;1.40;;;;;;;;;;5049210;28;20033;-57
2022/04/10 02:09:54;;;;;;;4.65;1.73;;;;;;;;;;5048996;28;20167;-57
2022/04/10 02:12:21;;;;;;;4.28;1.80;;;;;;;;;;5048645;28;20052;-57
2022/04/10 02:14:48;;;;;;;6.00;1.77;;;;;;;;;;5046930;28;20380;-57
2022/04/10 02:17:14;;;;;;;5.70;1.40;;;;;;;;;;5048481;28;20040;-55
2022/04/10 02:19:40;;;;;;;6.40;2.20;;;;;;;;;;5048459;28;20892;-56
2022/04/10 02:22:06;;;;;;;5.30;1.65;;;;;;;;;;5048896;28;20029;-55
2022/04/10 02:24:32;;;;;;;4.82;1.80;;;;;;;;;;5048628;28;20448;-58
2022/04/10 02:26:58;;;;;;;3.25;1.45;;;;;;;;;;5047750;28;20104;-58
2022/04/10 02:29:24;;;;;;;5.50;1.52;;;;;;;;;;5048097;28;20499;-55
2022/04/10 02:31:50;;;;;;;5.00;1.60;;;;;;;;;;5047885;28;20024;-56
2022/04/10 02:34:16;;;;;;;3.58;1.52;;;;;;;;;;5047871;28;20017;-55
2022/04/10 02:36:42;;;;;;;4.95;1.90;;;;;;;;;;5047746;28;20094;-56
2022/04/10 02:39:08;;;;;;;3.67;1.60;;;;;;;;;;5047990;28;20399;-54
2022/04/10 02:41:34;;;;;;;4.53;1.80;;;;;;;;;;5039228;28;20034;-57
2022/04/10 02:44:00;;;;;;;5.30;1.63;;;;;;;;;;5046530;28;20033;-57
2022/04/10 02:46:26;;;;;;;4.00;1.80;;;;;;;;;;5048267;28;20060;-57
2022/04/10 02:48:53;;;;;;;5.50;1.90;;;;;;;;;;5048550;28;20053;-57
2022/04/10 02:51:19;;;;;;;3.28;1.40;;;;;;;;;;5047643;28;20043;-55
2022/04/10 02:53:45;;;;;;;6.25;1.67;;;;;;;;;;5048118;28;20036;-56
2022/04/10 02:56:11;;;;;;;7.75;2.05;;;;;;;;;;5047954;28;20471;-56
2022/04/10 02:58:37;;;;;;;5.40;1.55;;;;;;;;;;5046320;28;20082;-58
2022/04/10 03:01:03;;;;;;;3.17;1.40;;;;;;;;;;5046573;28;20025;-55
2022/04/10 03:03:29;;;;;;;2.83;1.40;;;;;;;;;;5048198;28;20048;-55
2022/04/10 03:05:55;;;;;;;4.22;1.65;;;;;;;;;;5048164;28;20029;-55
2022/04/10 03:08:21;;;;;;;6.20;1.90;;;;;;;;;;5048612;28;20774;-56
2022/04/10 03:10:47;;;;;;;4.40;1.70;;;;;;;;;;5048021;28;20522;-56
2022/04/10 03:13:15;;;;;;;3.78;1.42;;;;;;;;;;5046689;28;20210;-57
2022/04/10 03:15:41;;;;;;;5.80;2.00;;;;;;;;;;5047732;28;20033;-56
2022/04/10 03:18:07;;;;;;;4.13;1.67;;;;;;;;;;5047807;28;20033;-56
2022/04/10 03:20:33;;;;;;;3.03;1.27;;;;;;;;;;5047626;28;20496;-57
2022/04/10 03:22:59;;;;;;;4.03;1.83;;;;;;;;;;5048327;28;20017;-57
2022/04/10 03:25:25;;;;;;;4.25;1.52;;;;;;;;;;5048208;28;20431;-56
2022/04/10 03:27:51;;;;;;;5.63;1.95;;;;;;;;;;5047498;28;20136;-56
2022/04/10 03:30:17;;;;;;;5.32;1.75;;;;;;;;;;5047788;28;20053;-57
2022/04/10 03:32:43;;;;;;;3.92;1.23;;;;;;;;;;5048126;28;20036;-56
2022/04/10 03:35:09;;;;;;;5.50;1.65;;;;;;;;;;5047717;28;20399;-57
2022/04/10 03:37:35;;;;;;;5.60;2.08;;;;;;;;;;5047506;28;20111;-57
2022/04/10 03:40:03;;;;;;;4.63;1.50;;;;;;;;;;5048273;28;20021;-54
2022/04/10 03:42:37;;;;;;;6.80;1.70;;;;;;;;;;5040683;28;20088;-56
2022/04/10 03:45:03;;;;;;;4.25;1.75;;;;;;;;;;5041404;28;20486;-58
2022/04/10 03:47:29;;;;;;;4.65;1.48;;;;;;;;;;5047508;28;20021;-55
2022/04/10 03:49:55;;;;;;;5.72;1.73;;;;;;;;;;5047968;28;20543;-56
2022/04/10 03:52:21;;;;;;;4.90;1.77;;;;;;;;;;5047322;28;20043;-56
2022/04/10 03:54:47;;;;;;;3.78;1.67;;;;;;;;;;5047721;28;20041;-57
2022/04/10 03:57:13;;;;;;;4.07;1.50;;;;;;;;;;5050395;28;20490;-56
2022/04/10 03:59:39;;;;;;;4.30;1.55;;;;;;;;;;5051537;28;20127;-54
2022/04/10 04:02:05;;;;;;;5.88;1.52;;;;;;;;;;5050948;28;20430;-53
2022/04/10 04:04:31;;;;;;;3.00;1.40;;;;;;;;;;5051297;28;20107;-54
2022/04/10 04:06:57;;;;;;;4.57;1.35;;;;;;;;;;5051444;28;20374;-56
2022/04/10 04:09:23;;;;;;;4.90;1.50;;;;;;;;;;5051004;28;20021;-55
2022/04/10 04:11:49;;;;;;;4.40;1.55;;;;;;;;;;5049549;28;20025;-55
2022/04/10 04:14:15;;;;;;;4.90;1.88;;;;;;;;;;5049955;28;20029;-57
2022/04/10 04:16:42;;;;;;;4.57;1.88;;;;;;;;;;5051264;28;20033;-54
2022/04/10 04:19:08;;;;;;;5.32;1.52;;;;;;;;;;5050716;28;20175;-56
2022/04/10 04:21:34;;;;;;;4.95;1.60;;;;;;;;;;5050764;28;20040;-54
2022/04/10 04:24:00;;;;;;;6.43;1.73;;;;;;;;;;5050731;28;20029;-56
2022/04/10 04:26:26;;;;;;;4.32;1.38;;;;;;;;;;5051276;28;20040;-55
2022/04/10 04:28:52;;;;;;;5.70;1.65;;;;;;;;;;5043306;28;20028;-57
2022/04/10 04:31:18;;;;;;;5.10;1.80;;;;;;;;;;5049929;28;20526;-56
2022/04/10 04:33:44;;;;;;;4.20;2.10;;;;;;;;;;5041354;28;20071;-55
2022/04/10 04:36:10;;;;;;;3.95;1.30;;;;;;;;;;5037851;28;20576;-55
2022/04/10 04:38:37;;;;;;;4.03;1.52;;;;;;;;;;5041848;28;20091;-55
2022/04/10 04:41:08;;;;;;;10.18;2.28;;;;;;;;;;5049685;28;20029;-56
2022/04/10 04:43:34;;;;;;;10.05;3.08;;;;;;;;;;5042884;28;20041;-55
2022/04/10 04:46:00;;;;;;;16.70;2.70;;;;;;;;;;5050874;28;20110;-55
2022/04/10 04:48:26;;;;;;;8.20;3.33;;;;;;;;;;5051095;28;20127;-56
2022/04/10 04:50:52;;;;;;;9.27;3.15;;;;;;;;;;5050296;28;20515;-56
2022/04/10 04:53:18;;;;;;;11.73;2.17;;;;;;;;;;5046166;28;20026;-56
2022/04/10 04:55:44;;;;;;;12.75;3.22;;;;;;;;;;5045349;28;20517;-54
2022/04/10 04:58:12;;;;;;;9.88;2.65;;;;;;;;;;5049987;28;20029;-56
2022/04/10 05:00:38;;;;;;;9.13;2.55;;;;;;;;;;5049435;28;20037;-54
2022/04/10 05:03:04;;;;;;;12.00;2.40;;;;;;;;;;5040690;28;20144;-55
2022/04/10 05:05:30;;;;;;;12.57;2.58;;;;;;;;;;5042995;28;20472;-54
2022/04/10 05:07:56;;;;;;;8.75;3.30;;;;;;;;;;5041973;28;20029;-56
2022/04/10 05:10:22;;;;;;;14.10;3.55;;;;;;;;;;5041388;28;20542;-51
2022/04/10 05:12:48;;;;;;;8.23;2.45;;;;;;;;;;5041374;28;20017;-54
2022/04/10 05:15:14;;;;;;;8.05;3.40;;;;;;;;;;5043451;28;20041;-56
2022/04/10 05:17:40;;;;;;;11.43;2.92;;;;;;;;;;5042715;28;20127;-56
2022/04/10 05:20:07;;;;;;;10.20;2.33;;;;;;;;;;5039221;28;20029;-55
2022/04/10 05:22:33;;;;;;;11.80;2.75;;;;;;;;;;5043968;28;20040;-55
2022/04/10 05:25:00;;;;;;;8.65;2.30;;;;;;;;;;5040085;28;20442;-56
2022/04/10 05:27:26;;;;;;;9.77;2.55;;;;;;;;;;5043083;28;20207;-56
2022/04/10 05:29:52;;;;;;;9.45;2.65;;;;;;;;;;5040390;28;20098;-52
2022/04/10 05:32:18;;;;;;;10.90;3.22;;;;;;;;;;5038836;28;20037;-55
2022/04/10 05:34:45;;;;;;;7.50;2.17;;;;;;;;;;5040432;28;20036;-56
2022/04/10 05:37:11;;;;;;;9.05;2.38;;;;;;;;;;5041438;28;20069;-55
2022/04/10 05:39:39;;;;;;;12.48;2.45;;;;;;;;;;5040742;28;20104;-55
2022/04/10 05:42:05;;;;;;;10.30;2.13;;;;;;;;;;5041590;28;20036;-56
2022/04/10 05:44:32;;;;;;;15.65;2.72;;;;;;;;;;5038873;28;20048;-55
2022/04/10 05:46:59;;;;;;;12.30;2.40;;;;;;;;;;5039269;28;20035;-56
2022/04/10 05:49:25;;;;;;;12.20;2.30;;;;;;;;;;5043373;28;20505;-54
2022/04/10 05:51:52;;;;;;;9.77;2.17;;;;;;;;;;5047659;28;20534;-55
2022/04/10 05:54:18;;;;;;;14.95;2.38;;;;;;;;;;5049498;28;20028;-55
2022/04/10 05:56:44;;;;;;;14.88;2.50;;;;;;;;;;5049150;28;20442;-55
2022/04/10 05:59:10;;;;;;;8.88;2.00;;;;;;;;;;5047342;28;20060;-56
2022/04/10 06:01:36;;;;;;;15.70;3.45;;;;;;;;;;5042374;28;20581;-55
2022/04/10 06:04:02;;;;;;;14.73;2.67;;;;;;;;;;5049225;28;20747;-55
2022/04/10 06:06:28;;;;;;;12.55;2.92;;;;;;;;;;5049235;28;20542;-55
2022/04/10 06:08:54;;;;;;;12.23;2.20;;;;;;;;;;5049150;28;20052;-56
2022/04/10 06:11:20;;;;;;;13.30;2.75;;;;;;;;;;5041836;28;20451;-54
2022/04/10 06:13:46;;;;;;;9.13;2.50;;;;;;;;;;5039759;28;20084;-56
2022/04/10 06:16:12;;;;;;;15.23;3.45;;;;;;;;;;5042672;28;20666;-55
2022/04/10 06:18:38;;;;;;;12.10;2.63;;;;;;;;;;5041518;28;20444;-53
2022/04/10 06:21:04;;;;;;;9.50;2.50;;;;;;;;;;5038137;28;20060;-52
2022/04/10 06:23:30;;;;;;;15.80;3.17;;;;;;;;;;5042055;28;20539;-55
2022/04/10 06:25:56;;;;;;;13.90;3.10;;;;;;;;;;5039022;28;20106;-56
2022/04/10 06:28:22;;;;;;;12.65;2.42;;;;;;;;;;5038275;28;20507;-56
2022/04/10 06:30:48;;;;;;;16.85;2.58;;;;;;;;;;5037192;28;20053;-56
2022/04/10 06:33:14;;;;;;;12.25;2.55;;;;;;;;;;5042343;28;20447;-54
2022/04/10 06:35:41;;;;;;;17.20;3.47;;;;;;;;;;5048670;28;20040;-56
2022/04/10 06:38:07;;;;;;;19.60;3.10;;;;;;;;;;5048786;28;20037;-55
2022/04/10 06:40:33;;;;;;;22.13;3.60;;;;;;;;;;5048678;28;20025;-55
2022/04/10 06:42:59;;;;;;;14.82;3.65;;;;;;;;;;5048488;28;20025;-56
2022/04/10 06:45:25;;;;;;;14.40;3.17;;;;;;;;;;5035623;28;20067;-55
2022/04/10 06:47:52;;;;;;;15.07;3.17;;;;;;;;;;5037472;28;20025;-54
2022/04/10 06:50:18;;;;;;;19.10;3.20;;;;;;;;;;5038150;28;20742;-55
2022/04/10 06:52:44;;;;;;;13.35;2.70;;;;;;;;;;5037143;28;20060;-56
2022/04/10 06:55:11;;;;;;;15.75;3.33;;;;;;;;;;5044147;28;20036;-55
2022/04/10 06:57:37;;;;;;;17.38;3.08;;;;;;;;;;5028158;28;20499;-55
2022/04/10 07:00:03;;;;;;;9.07;2.95;;;;;;;;;;5055275;28;20029;-54
2022/04/10 07:02:32;;;;;;;19.00;3.20;;;;;;;;;;5047889;28;20171;-56
2022/04/10 07:04:58;;;;;;;18.60;3.17;;;;;;;;;;5049094;28;20031;-56
2022/04/10 07:07:25;;;;;;;21.75;3.85;;;;;;;;;;5053420;28;20111;-55
2022/04/10 07:09:51;;;;;;;18.58;3.17;;;;;;;;;;5055012;28;20040;-58
2022/04/10 07:12:17;;;;;;;20.88;3.22;;;;;;;;;;5048036;28;20441;-56
2022/04/10 07:14:43;;;;;;;18.98;2.70;;;;;;;;;;5047746;28;20105;-55
2022/04/10 07:17:09;;;;;;;13.75;2.58;;;;;;;;;;5047576;28;20243;-57
2022/04/10 07:19:35;;;;;;;12.18;2.63;;;;;;;;;;5047944;28;20025;-57
2022/04/10 07:24:46;;;;;;;29.48;4.03;;;;;;;;;;5058022;28;20831;-57
2022/04/10 07:27:12;;;;;;;17.00;3.15;;;;;;;;;;5060456;28;20486;-57
2022/04/10 07:29:38;;;;;;;10.05;2.83;;;;;;;;;;5057781;28;20052;-55
2022/04/10 07:32:06;;;;;;;16.38;3.25;;;;;;;;;;5051599;28;20767;-54
2022/04/10 07:34:32;;;;;;;15.82;2.90;;;;;;;;;;5051538;28;20021;-56
2022/04/10 07:36:58;;;;;;;12.95;3.13;;;;;;;;;;5043088;28;20057;-52
2022/04/10 07:39:24;;;;;;;14.77;3.30;;;;;;;;;;5061076;28;20680;-54
2022/04/10 07:41:50;;;;;;;18.83;4.45;;;;;;;;;;5056867;28;20037;-56
2022/04/10 07:44:16;;;;;;;16.05;3.78;;;;;;;;;;5063006;28;20582;-55
2022/04/10 07:49:27;;;;;;;22.17;2.72;;;;;;;;;;5056095;28;20059;-55
2022/04/10 07:51:53;;;;;;;13.13;3.28;;;;;;;;;;5048480;28;20024;-60
2022/04/10 07:54:19;;;;;;;17.85;3.20;;;;;;;;;;5034139;28;20551;-56
2022/04/10 07:56:46;;;;;;;15.20;2.72;;;;;;;;;;5048789;28;20107;-56
2022/04/10 07:59:12;;;;;;;16.05;2.80;;;;;;;;;;5055485;28;20029;-60
2022/04/10 08:01:38;;;;;;;15.27;2.85;;;;;;;;;;5056737;28;20504;-57
2022/04/10 08:04:05;;;;;;;15.98;2.53;;;;;;;;;;5048926;28;20028;-56
2022/04/10 08:06:31;;;;;;;10.55;2.67;;;;;;;;;;5054455;28;20017;-55
2022/04/10 08:08:58;;;;;;;18.92;3.22;;;;;;;;;;5056742;28;20223;-53
2022/04/10 08:11:24;;;;;;;14.13;2.20;;;;;;;;;;5064893;28;20052;-52
2022/04/10 08:13:50;;;;;;;14.23;3.83;;;;;;;;;;5051573;28;20057;-55
2022/04/10 08:16:17;;;;;;;10.35;2.40;;;;;;;;;;5050822;28;20051;-56
2022/04/10 08:18:43;;;;;;;12.27;2.63;;;;;;;;;;5041140;28;20049;-59
2022/04/10 08:21:09;;;;;;;12.48;2.05;;;;;;;;;;5034719;28;20413;-59
2022/04/10 08:23:35;;;;;;;13.25;2.65;;;;;;;;;;5050156;28;20467;-60
2022/04/10 08:26:02;;;;;;;11.75;2.50;;;;;;;;;;5048629;28;20052;-59
2022/04/10 08:28:28;;;;;;;12.57;2.35;;;;;;;;;;5051926;28;20585;-54
2022/04/10 08:30:54;;;;;;;10.35;2.65;;;;;;;;;;5057706;28;20048;-59
2022/04/10 08:33:21;;;;;;;15.52;2.85;;;;;;;;;;5049836;28;20083;-59
2022/04/10 08:35:47;;;;;;;9.40;2.08;;;;;;;;;;5051009;28;20032;-59
2022/04/10 08:38:13;;;;;;;11.07;2.30;;;;;;;;;;5050546;28;20035;-54
2022/04/10 08:40:40;;;;;;;10.38;2.40;;;;;;;;;;5052683;28;20029;-62
2022/04/10 08:43:06;;;;;;;12.05;1.92;;;;;;;;;;5056672;28;20170;-60
2022/04/10 08:45:32;;;;;;;10.07;2.47;;;;;;;;;;5050698;28;20021;-56
2022/04/10 08:47:59;;;;;;;10.43;1.88;;;;;;;;;;5049280;28;20021;-60
2022/04/10 08:50:28;;;;;;;10.57;2.20;;;;;;;;;;5048455;28;20029;-60
2022/04/10 08:52:58;;;;;;;8.55;2.08;;;;;;;;;;5064231;28;20024;-59
2022/04/10 08:55:24;;;;;;;8.88;2.30;;;;;;;;;;5052354;28;20056;-60
2022/04/10 08:57:51;;;;;;;13.95;2.65;;;;;;;;;;5051805;28;20033;-60
2022/04/10 09:00:19;;;;;;;13.50;2.13;;;;;;;;;;5053232;28;20104;-60
2022/04/10 09:02:50;;;;;;;12.88;1.95;;;;;;;;;;5051938;28;20450;-57
2022/04/10 09:05:19;;;;;;;14.90;2.42;;;;;;;;;;5049822;28;20487;-60
2022/04/10 09:08:05;;;;;;;7.90;2.28;;;;;;;;;;5056654;28;20029;-61
2022/04/10 09:10:31;;;;;;;7.05;2.28;;;;;;;;;;5051445;28;20116;-62
2022/04/10 09:12:57;;;;;;;10.05;1.55;;;;;;;;;;5066060;28;20025;-61
2022/04/10 09:15:32;;;;;;;16.20;2.15;;;;;;;;;;5049331;28;20152;-58
2022/04/10 09:17:58;;;;;;;8.43;1.70;;;;;;;;;;5049972;28;20025;-62
2022/04/10 09:20:24;;;;;;;5.80;1.70;;;;;;;;;;5047625;28;20112;-61
2022/04/10 09:22:50;;;;;;;7.35;1.85;;;;;;;;;;5052345;28;20557;-60
2022/04/10 09:25:17;;;;;;;8.52;1.83;;;;;;;;;;5052706;28;20543;-60
2022/04/10 09:27:50;;;;;;;10.32;2.58;;;;;;;;;;5059722;28;20024;-60
2022/04/10 09:30:17;;;;;;;10.13;2.58;;;;;;;;;;5049640;28;20049;-62
2022/04/10 09:32:53;;;;;;;7.60;1.88;;;;;;;;;;5065880;28;20558;-62
2022/04/10 09:35:24;;;;;;;11.95;2.30;;;;;;;;;;5040103;28;20128;-62
2022/04/10 09:37:50;;;;;;;8.98;2.13;;;;;;;;;;5043209;28;20107;-62
2022/04/10 09:40:23;;;;;;;11.50;2.13;;;;;;;;;;5037902;28;20032;-61
2022/04/10 09:42:50;;;;;;;9.57;2.00;;;;;;;;;;5038309;28;20038;-61
2022/04/10 09:45:28;;;;;;;13.73;2.03;;;;;;;;;;5037817;28;20415;-61
2022/04/10 09:47:54;;;;;;;7.35;1.60;;;;;;;;;;5037122;28;20052;-62
2022/04/10 09:50:30;;;;;;;9.45;1.50;;;;;;;;;;5038705;28;20061;-61
2022/04/10 09:52:56;;;;;;;7.15;1.73;;;;;;;;;;5034316;28;20022;-62
2022/04/10 09:55:41;;;;;;;7.88;1.90;;;;;;;;;;5033133;28;20086;-62
2022/04/10 09:58:09;;;;;;;5.05;1.52;;;;;;;;;;5034640;28;20029;-61
2022/04/10 10:00:37;;;;;;;6.07;1.42;;;;;;;;;;5040078;28;20024;-61
2022/04/10 10:03:04;;;;;;;6.38;1.65;;;;;;;;;;5035884;28;20441;-60
2022/04/10 10:05:30;;;;;;;8.02;1.60;;;;;;;;;;5034735;28;20029;-62
2022/04/10 10:07:57;;;;;;;4.43;1.35;;;;;;;;;;5029801;28;20550;-62
2022/04/10 10:10:23;;;;;;;6.70;1.27;;;;;;;;;;5033800;28;20084;-62
2022/04/10 10:12:52;;;;;;;12.15;2.05;;;;;;;;;;5029782;28;20104;-61
2022/04/10 10:15:18;;;;;;;7.32;1.25;;;;;;;;;;5034227;28;20082;-61
2022/04/10 10:17:44;;;;;;;6.40;1.58;;;;;;;;;;5035715;28;20071;-61
2022/04/10 10:20:11;;;;;;;7.63;1.23;;;;;;;;;;5033263;28;20036;-61
2022/04/10 10:22:38;;;;;;;12.20;2.03;;;;;;;;;;5032873;28;20025;-61
2022/04/10 10:25:07;;;;;;;9.88;1.58;;;;;;;;;;5029917;28;20112;-61
2022/04/10 10:27:52;;;;;;;7.97;1.53;;;;;;;;;;5029112;28;20056;-61
2022/04/10 10:30:37;;;;;;;10.55;1.67;;;;;;;;;;5034002;28;20138;-60
2022/04/10 10:33:15;;;;;;;11.05;1.80;;;;;;;;;;5033715;28;20079;-60
2022/04/10 10:35:43;;;;;;;10.50;1.73;;;;;;;;;;5035005;28;20109;-61
2022/04/10 10:38:28;;;;;;;8.45;2.03;;;;;;;;;;5033679;28;20376;-60
2022/04/10 10:41:14;;;;;;;7.90;1.33;;;;;;;;;;5036482;28;20029;-60
2022/04/10 10:43:40;;;;;;;10.38;2.25;;;;;;;;;;5032741;28;20037;-60
2022/04/10 10:46:20;;;;;;;22.38;1.67;;;;;;;;;;5029465;28;20091;-60
2022/04/10 10:48:46;;;;;;;8.20;1.20;;;;;;;;;;5033493;28;20083;-60
2022/04/10 10:51:12;;;;;;;9.32;1.85;;;;;;;;;;5037075;28;20367;-60
2022/04/10 10:53:45;;;;;;;11.43;1.67;;;;;;;;;;5036307;28;20522;-60
2022/04/10 10:56:14;;;;;;;16.88;1.48;;;;;;;;;;5033520;28;20034;-61
2022/04/10 10:58:41;;;;;;;10.63;1.55;;;;;;;;;;5031801;28;20424;-60
2022/04/10 11:01:07;;;;;;;11.30;1.73;;;;;;;;;;5038840;28;20036;-61
2022/04/10 11:03:53;;;;;;;9.27;2.08;;;;;;;;;;5034512;28;20739;-60
2022/04/10 11:06:21;;;;;;;12.25;1.52;;;;;;;;;;5037421;28;20516;-60
2022/04/10 11:08:47;;;;;;;6.47;1.58;;;;;;;;;;5036366;28;20918;-60
2022/04/10 11:11:19;;;;;;;12.65;1.65;;;;;;;;;;5032475;28;20485;-60
2022/04/10 11:13:48;;;;;;;6.93;1.55;;;;;;;;;;5034949;28;20025;-60
2022/04/10 11:16:14;;;;;;;14.13;2.88;;;;;;;;;;5031705;28;20040;-60
2022/04/10 11:18:43;;;;;;;6.68;1.15;;;;;;;;;;5032854;28;20037;-60
2022/04/10 11:21:14;;;;;;;11.40;2.47;;;;;;;;;;5033385;28;20033;-60
2022/04/10 11:23:45;;;;;;;8.15;1.52;;;;;;;;;;5034990;28;20112;-61
2022/04/10 11:26:19;;;;;;;9.25;1.50;;;;;;;;;;5031234;28;20518;-60
2022/04/10 11:29:04;;;;;;;8.20;1.30;;;;;;;;;;5031824;28;20025;-60
2022/04/10 11:31:41;;;;;;;9.23;1.20;;;;;;;;;;5033249;28;20044;-61
2022/04/10 11:34:13;;;;;;;6.78;2.13;;;;;;;;;;5034351;28;20041;-60
2022/04/10 11:36:48;;;;;;;4.50;1.25;;;;;;;;;;5035759;28;20163;-60
2022/04/10 11:39:16;;;;;;;7.07;1.52;;;;;;;;;;5034749;28;20054;-60
2022/04/10 11:41:43;;;;;;;4.43;1.33;;;;;;;;;;5030181;28;20071;-60
2022/04/10 11:44:10;;;;;;;9.13;1.48;;;;;;;;;;5035653;28;20036;-60
2022/04/10 11:46:37;;;;;;;7.85;1.33;;;;;;;;;;5036421;28;20029;-60
2022/04/10 11:49:03;;;;;;;6.45;1.27;;;;;;;;;;5029116;28;20097;-60
2022/04/10 11:51:29;;;;;;;6.45;1.00;;;;;;;;;;5034554;28;20587;-60
2022/04/10 11:53:56;;;;;;;4.80;1.13;;;;;;;;;;5036026;28;20025;-60
2022/04/10 11:56:22;;;;;;;8.20;2.28;;;;;;;;;;5034390;28;20487;-60
2022/04/10 11:58:48;;;;;;;6.10;1.17;;;;;;;;;;5034501;28;20025;-60
2022/04/10 12:01:15;;;;;;;7.78;1.70;;;;;;;;;;5031586;28;20108;-60
2022/04/10 12:03:43;;;;;;;7.05;1.15;;;;;;;;;;5031210;28;20037;-60
2022/04/10 12:06:19;;;;;;;8.13;1.42;;;;;;;;;;5034548;28;20135;-61
2022/04/10 12:08:45;;;;;;;3.28;0.88;;;;;;;;;;5034991;28;20033;-61
2022/04/10 12:11:11;;;;;;;4.60;1.05;;;;;;;;;;5036810;28;20563;-60
2022/04/10 12:13:40;;;;;;;6.68;1.38;;;;;;;;;;5034398;28;20583;-60
2022/04/10 12:16:10;;;;;;;7.68;1.42;;;;;;;;;;5034808;28;20063;-61
2022/04/10 12:18:36;;;;;;;;;;;;;;;;;;5035092;28;20087;-62
2022/04/10 12:21:02;;;;;;;11.13;1.05;;;;;;;;;;5034509;28;20394;-60
2022/04/10 12:23:29;;;;;;;5.95;1.08;;;;;;;;;;5037349;28;20040;-60
2022/04/10 12:25:57;;;;;;;7.70;1.10;;;;;;;;;;5034810;28;20086;-59
2022/04/10 12:28:23;;;;;;;3.83;1.30;;;;;;;;;;5035471;28;20391;-60
2022/04/10 12:30:50;;;;;;;6.10;0.95;;;;;;;;;;5037783;28;20132;-60
2022/04/10 12:33:17;;;;;;;4.50;1.10;;;;;;;;;;5035956;28;21465;-61
2022/04/10 12:35:45;;;;;;;11.18;1.55;;;;;;;;;;5036037;28;20083;-60
2022/04/10 12:38:17;;;;;;;7.15;1.10;;;;;;;;;;5035163;28;20120;-60
2022/04/10 12:40:43;;;;;;;4.85;1.00;;;;;;;;;;5037295;28;20048;-60
2022/04/10 12:43:10;;;;;;;5.13;1.15;;;;;;;;;;5038773;28;20807;-60
2022/04/10 12:45:37;;;;;;;4.15;1.08;;;;;;;;;;5038002;28;20021;-60
2022/04/10 12:48:19;;;;;;;7.53;1.02;;;;;;;;;;5034268;28;20149;-60
2022/04/10 12:50:45;;;;;;;4.88;1.38;;;;;;;;;;5039571;28;20199;-60
2022/04/10 12:53:12;;;;;;;6.40;0.93;;;;;;;;;;5035216;28;20111;-60
2022/04/10 12:55:38;;;;;;;4.20;0.98;;;;;;;;;;5038396;28;20032;-59
2022/04/10 12:58:07;;;;;;;5.05;1.20;;;;;;;;;;5034393;28;20033;-61
2022/04/10 13:00:36;;;;;;;7.40;0.90;;;;;;;;;;5036704;28;20033;-61
2022/04/10 13:03:23;;;;;;;4.95;0.93;;;;;;;;;;5037083;28;20027;-62
2022/04/10 13:06:03;;;;;;;3.25;0.98;;;;;;;;;;5038193;28;20120;-61
2022/04/10 13:08:33;;;;;;;3.38;0.80;;;;;;;;;;5033080;28;20125;-61
2022/04/10 13:10:59;;;;;;;;;;;;;;;;;;5030024;28;20087;-61
2022/04/10 13:13:25;;;;;;;5.60;1.30;;;;;;;;;;5034982;28;19948;-61
2022/04/10 13:15:51;;;;;;;7.15;1.02;;;;;;;;;;5037180;28;20411;-61
2022/04/10 13:18:25;;;;;;;5.88;1.30;;;;;;;;;;5036504;28;20064;-61
2022/04/10 13:20:51;;;;;;;7.03;1.40;;;;;;;;;;5036545;28;20025;-61
2022/04/10 13:23:17;;;;;;;5.25;1.27;;;;;;;;;;5033592;28;20068;-61
2022/04/10 13:25:46;;;;;;;5.22;1.38;;;;;;;;;;5032282;28;20034;-60
2022/04/10 13:28:15;;;;;;;5.50;1.00;;;;;;;;;;5035630;28;20116;-61
2022/04/10 13:30:42;;;;;;;5.35;1.52;;;;;;;;;;5035018;28;20041;-61
2022/04/10 13:33:11;;;;;;;4.97;1.20;;;;;;;;;;5036474;28;20059;-61
2022/04/10 13:35:37;;;;;;;4.75;1.15;;;;;;;;;;5033717;28;20404;-60
2022/04/10 13:38:03;;;;;;;6.43;1.50;;;;;;;;;;5034643;28;20080;-60
2022/04/10 13:40:31;;;;;;;7.25;1.35;;;;;;;;;;5033252;28;20057;-62
2022/04/10 13:42:57;;;;;;;8.30;1.30;;;;;;;;;;5035597;28;20384;-61
2022/04/10 13:45:24;;;;;;;8.00;1.38;;;;;;;;;;5035047;28;20033;-61
2022/04/10 13:47:50;;;;;;;6.45;1.20;;;;;;;;;;5033211;28;20029;-61
2022/04/10 13:50:18;;;;;;;6.70;1.25;;;;;;;;;;5034158;28;20542;-59
2022/04/10 13:52:44;;;;;;;9.90;1.20;;;;;;;;;;5032096;28;20096;-59
2022/04/10 13:55:10;;;;;;;8.10;1.17;;;;;;;;;;5031795;28;20033;-59
2022/04/10 13:57:36;;;;;;;7.60;1.33;;;;;;;;;;5031262;28;20029;-60
2022/04/10 14:00:02;;;;;;;6.53;1.67;;;;;;;;;;5034944;28;20025;-60
2022/04/10 14:02:28;;;;;;;7.03;1.50;;;;;;;;;;5035661;28;20036;-61
2022/04/10 14:04:54;;;;;;;7.38;1.50;;;;;;;;;;5033516;28;20029;-58
2022/04/10 14:07:20;;;;;;;5.25;1.30;;;;;;;;;;5033372;28;20530;-56
2022/04/10 14:09:46;;;;;;;8.00;1.50;;;;;;;;;;5030790;28;20127;-57
2022/04/10 14:12:14;;;;;;;2.85;1.05;;;;;;;;;;5034037;28;20094;-59
2022/04/10 14:14:40;;;;;;;4.35;0.95;;;;;;;;;;5030963;28;20032;-57
2022/04/10 14:17:06;;;;;;;4.95;1.38;;;;;;;;;;5034444;28;20087;-58
2022/04/10 14:19:32;;;;;;;5.00;1.67;;;;;;;;;;5034041;28;20119;-57
2022/04/10 14:21:58;;;;;;;6.05;1.00;;;;;;;;;;5034589;28;20494;-61
2022/04/10 14:24:24;;;;;;;8.18;1.45;;;;;;;;;;5036520;28;20060;-61
2022/04/10 14:26:50;;;;;;;7.65;1.17;;;;;;;;;;5031423;28;21642;-60
2022/04/10 14:29:16;;;;;;;7.18;1.88;;;;;;;;;;5037552;28;20025;-60
2022/04/10 14:31:46;;;;;;;6.25;1.58;;;;;;;;;;5036470;28;20120;-60
2022/04/10 14:34:13;;;;;;;8.20;1.83;;;;;;;;;;5032485;28;20033;-60
2022/04/10 14:36:39;;;;;;;3.75;1.23;;;;;;;;;;5033406;28;20033;-60
2022/04/10 14:39:05;;;;;;;7.03;1.27;;;;;;;;;;5035922;28;20043;-60
2022/04/10 14:41:31;;;;;;;8.18;1.58;;;;;;;;;;5035180;28;20041;-60
2022/04/10 14:43:58;;;;;;;3.75;1.05;;;;;;;;;;5032803;28;20075;-61
2022/04/10 14:46:24;;;;;;;11.32;1.50;;;;;;;;;;5035160;28;20403;-61